sensor_id;sensor_type;location;lat;lon;timestamp;P1;durP1;ratioP1;P2;durP2;ratioP2
62056;SDS011;48016;50.284;18.860;2024-01-30T00:01:09;45.70;;;19.30;;
62056;SDS011;48016;50.284;18.860;2024-01-30T00:03:48;44.40;;;20.60;;
62056;SDS011;48016;50.284;18.860;2024-01-30T00:06:20;46.70;;;21.00;;
62056;SDS011;48016;50.284;18.860;2024-01-30T00:08:50;57.00;;;24.50;;
62056;SDS011;48016;50.284;18.860;2024-01-30T00:11:16;64.80;;;26.80;;
62056;SDS011;48016;50.284;18.860;2024-01-30T00:13:43;64.50;;;26.50;;
62056;SDS011;48016;50.284;18.860;2024-01-30T00:16:31;63.20;;;26.50;;
62056;SDS011;48016;50.284;18.860;2024-01-30T00:21:24;54.50;;;25.40;;
62056;SDS011;48016;50.284;18.860;2024-01-30T00:23:51;59.30;;;27.70;;
62056;SDS011;48016;50.284;18.860;2024-01-30T00:26:18;56.90;;;25.50;;
62056;SDS011;48016;50.284;18.860;2024-01-30T00:28:45;60.40;;;26.30;;
62056;SDS011;48016;50.284;18.860;2024-01-30T00:31:11;56.40;;;25.50;;
62056;SDS011;48016;50.284;18.860;2024-01-30T00:33:39;46.10;;;25.30;;
62056;SDS011;48016;50.284;18.860;2024-01-30T00:36:08;47.40;;;22.10;;
62056;SDS011;48016;50.284;18.860;2024-01-30T00:38:37;43.40;;;20.70;;
62056;SDS011;48016;50.284;18.860;2024-01-30T00:41:04;39.20;;;17.80;;
62056;SDS011;48016;50.284;18.860;2024-01-30T00:43:31;38.50;;;17.80;;
62056;SDS011;48016;50.284;18.860;2024-01-30T00:45:58;33.70;;;17.80;;
62056;SDS011;48016;50.284;18.860;2024-01-30T00:50:52;32.20;;;15.90;;
62056;SDS011;48016;50.284;18.860;2024-01-30T00:53:18;27.80;;;13.80;;
62056;SDS011;48016;50.284;18.860;2024-01-30T00:55:45;27.80;;;13.80;;
62056;SDS011;48016;50.284;18.860;2024-01-30T00:58:12;27.50;;;13.70;;
62056;SDS011;48016;50.284;18.860;2024-01-30T01:00:39;29.00;;;14.10;;
62056;SDS011;48016;50.284;18.860;2024-01-30T01:03:06;25.20;;;13.60;;
62056;SDS011;48016;50.284;18.860;2024-01-30T01:05:33;29.70;;;13.50;;
62056;SDS011;48016;50.284;18.860;2024-01-30T01:07:59;23.50;;;12.30;;
62056;SDS011;48016;50.284;18.860;2024-01-30T01:10:26;26.80;;;12.90;;
62056;SDS011;48016;50.284;18.860;2024-01-30T01:12:53;30.80;;;14.10;;
62056;SDS011;48016;50.284;18.860;2024-01-30T01:15:20;24.60;;;13.20;;
62056;SDS011;48016;50.284;18.860;2024-01-30T01:17:47;24.10;;;13.40;;
62056;SDS011;48016;50.284;18.860;2024-01-30T01:20:14;26.00;;;13.60;;
62056;SDS011;48016;50.284;18.860;2024-01-30T01:22:40;31.40;;;13.90;;
62056;SDS011;48016;50.284;18.860;2024-01-30T01:25:08;27.70;;;14.20;;
62056;SDS011;48016;50.284;18.860;2024-01-30T01:27:36;27.40;;;12.60;;
62056;SDS011;48016;50.284;18.860;2024-01-30T01:30:08;25.60;;;12.70;;
62056;SDS011;48016;50.284;18.860;2024-01-30T01:32:36;22.90;;;12.70;;
62056;SDS011;48016;50.284;18.860;2024-01-30T01:35:04;23.60;;;12.30;;
62056;SDS011;48016;50.284;18.860;2024-01-30T01:37:34;20.30;;;11.90;;
62056;SDS011;48016;50.284;18.860;2024-01-30T01:40:00;25.40;;;12.80;;
62056;SDS011;48016;50.284;18.860;2024-01-30T01:42:27;21.30;;;11.20;;
62056;SDS011;48016;50.284;18.860;2024-01-30T01:44:54;25.90;;;13.00;;
62056;SDS011;48016;50.284;18.860;2024-01-30T01:47:20;23.50;;;11.70;;
62056;SDS011;48016;50.284;18.860;2024-01-30T01:49:47;23.30;;;13.10;;
62056;SDS011;48016;50.284;18.860;2024-01-30T01:52:14;22.30;;;13.50;;
62056;SDS011;48016;50.284;18.860;2024-01-30T01:54:41;23.60;;;12.90;;
62056;SDS011;48016;50.284;18.860;2024-01-30T01:57:08;24.30;;;14.40;;
62056;SDS011;48016;50.284;18.860;2024-01-30T01:59:35;20.80;;;11.40;;
62056;SDS011;48016;50.284;18.860;2024-01-30T02:02:02;21.00;;;11.30;;
62056;SDS011;48016;50.284;18.860;2024-01-30T02:04:31;23.40;;;12.20;;
62056;SDS011;48016;50.284;18.860;2024-01-30T02:06:57;23.80;;;12.50;;
62056;SDS011;48016;50.284;18.860;2024-01-30T02:09:25;22.50;;;11.40;;
62056;SDS011;48016;50.284;18.860;2024-01-30T02:11:51;23.10;;;12.20;;
62056;SDS011;48016;50.284;18.860;2024-01-30T02:14:18;24.10;;;12.40;;
62056;SDS011;48016;50.284;18.860;2024-01-30T02:16:45;22.00;;;12.40;;
62056;SDS011;48016;50.284;18.860;2024-01-30T02:19:11;23.30;;;11.70;;
62056;SDS011;48016;50.284;18.860;2024-01-30T02:21:38;22.10;;;10.80;;
62056;SDS011;48016;50.284;18.860;2024-01-30T02:24:05;21.80;;;12.10;;
62056;SDS011;48016;50.284;18.860;2024-01-30T02:26:32;22.00;;;11.50;;
62056;SDS011;48016;50.284;18.860;2024-01-30T02:28:59;19.80;;;11.40;;
62056;SDS011;48016;50.284;18.860;2024-01-30T02:31:25;24.70;;;11.70;;
62056;SDS011;48016;50.284;18.860;2024-01-30T02:33:52;19.70;;;12.80;;
62056;SDS011;48016;50.284;18.860;2024-01-30T02:36:19;21.60;;;12.20;;
62056;SDS011;48016;50.284;18.860;2024-01-30T02:38:46;22.50;;;11.70;;
62056;SDS011;48016;50.284;18.860;2024-01-30T02:41:12;22.90;;;11.70;;
62056;SDS011;48016;50.284;18.860;2024-01-30T02:43:39;19.70;;;11.50;;
62056;SDS011;48016;50.284;18.860;2024-01-30T02:46:05;22.90;;;11.40;;
62056;SDS011;48016;50.284;18.860;2024-01-30T02:48:32;20.90;;;11.30;;
62056;SDS011;48016;50.284;18.860;2024-01-30T02:50:59;21.60;;;12.10;;
62056;SDS011;48016;50.284;18.860;2024-01-30T02:53:26;23.00;;;12.70;;
62056;SDS011;48016;50.284;18.860;2024-01-30T02:55:53;21.70;;;12.30;;
62056;SDS011;48016;50.284;18.860;2024-01-30T02:58:19;27.20;;;13.10;;
62056;SDS011;48016;50.284;18.860;2024-01-30T03:00:46;24.90;;;13.00;;
62056;SDS011;48016;50.284;18.860;2024-01-30T03:03:13;25.70;;;12.90;;
62056;SDS011;48016;50.284;18.860;2024-01-30T03:05:40;27.50;;;13.10;;
62056;SDS011;48016;50.284;18.860;2024-01-30T03:08:06;21.40;;;12.10;;
62056;SDS011;48016;50.284;18.860;2024-01-30T03:10:33;25.30;;;12.70;;
62056;SDS011;48016;50.284;18.860;2024-01-30T03:13:00;23.60;;;11.80;;
62056;SDS011;48016;50.284;18.860;2024-01-30T03:15:26;26.90;;;13.00;;
62056;SDS011;48016;50.284;18.860;2024-01-30T03:17:53;21.40;;;10.90;;
62056;SDS011;48016;50.284;18.860;2024-01-30T03:20:20;23.90;;;12.10;;
62056;SDS011;48016;50.284;18.860;2024-01-30T03:22:47;19.50;;;11.60;;
62056;SDS011;48016;50.284;18.860;2024-01-30T03:25:14;19.90;;;11.40;;
62056;SDS011;48016;50.284;18.860;2024-01-30T03:27:40;19.80;;;11.00;;
62056;SDS011;48016;50.284;18.860;2024-01-30T03:30:07;19.60;;;10.50;;
62056;SDS011;48016;50.284;18.860;2024-01-30T03:32:34;24.30;;;11.70;;
62056;SDS011;48016;50.284;18.860;2024-01-30T03:35:01;22.50;;;11.90;;
62056;SDS011;48016;50.284;18.860;2024-01-30T03:37:28;20.10;;;11.20;;
62056;SDS011;48016;50.284;18.860;2024-01-30T03:39:54;21.00;;;11.60;;
62056;SDS011;48016;50.284;18.860;2024-01-30T03:42:21;21.80;;;11.60;;
62056;SDS011;48016;50.284;18.860;2024-01-30T03:44:48;20.40;;;11.30;;
62056;SDS011;48016;50.284;18.860;2024-01-30T03:47:18;20.20;;;11.00;;
62056;SDS011;48016;50.284;18.860;2024-01-30T03:49:46;19.20;;;11.10;;
62056;SDS011;48016;50.284;18.860;2024-01-30T03:52:13;20.10;;;11.30;;
62056;SDS011;48016;50.284;18.860;2024-01-30T03:54:39;24.80;;;12.70;;
62056;SDS011;48016;50.284;18.860;2024-01-30T03:57:06;23.60;;;11.90;;
62056;SDS011;48016;50.284;18.860;2024-01-30T03:59:33;25.50;;;11.90;;
62056;SDS011;48016;50.284;18.860;2024-01-30T04:01:59;22.60;;;12.20;;
62056;SDS011;48016;50.284;18.860;2024-01-30T04:04:26;24.70;;;12.50;;
62056;SDS011;48016;50.284;18.860;2024-01-30T04:06:53;22.90;;;11.60;;
62056;SDS011;48016;50.284;18.860;2024-01-30T04:09:20;22.60;;;11.90;;
62056;SDS011;48016;50.284;18.860;2024-01-30T04:11:46;20.90;;;12.00;;
62056;SDS011;48016;50.284;18.860;2024-01-30T04:14:13;19.80;;;11.30;;
62056;SDS011;48016;50.284;18.860;2024-01-30T04:16:40;22.40;;;12.70;;
62056;SDS011;48016;50.284;18.860;2024-01-30T04:19:06;26.00;;;12.30;;
62056;SDS011;48016;50.284;18.860;2024-01-30T04:21:33;21.30;;;12.20;;
62056;SDS011;48016;50.284;18.860;2024-01-30T04:24:00;23.40;;;12.30;;
62056;SDS011;48016;50.284;18.860;2024-01-30T04:26:27;26.80;;;12.80;;
62056;SDS011;48016;50.284;18.860;2024-01-30T04:28:53;26.40;;;12.20;;
62056;SDS011;48016;50.284;18.860;2024-01-30T04:31:20;21.60;;;11.40;;
62056;SDS011;48016;50.284;18.860;2024-01-30T04:33:47;20.60;;;11.60;;
62056;SDS011;48016;50.284;18.860;2024-01-30T04:36:14;23.70;;;11.80;;
62056;SDS011;48016;50.284;18.860;2024-01-30T04:38:40;23.00;;;12.30;;
62056;SDS011;48016;50.284;18.860;2024-01-30T04:41:07;19.20;;;10.70;;
62056;SDS011;48016;50.284;18.860;2024-01-30T04:43:34;23.20;;;12.20;;
62056;SDS011;48016;50.284;18.860;2024-01-30T04:46:00;26.90;;;13.00;;
62056;SDS011;48016;50.284;18.860;2024-01-30T04:48:28;23.20;;;11.70;;
62056;SDS011;48016;50.284;18.860;2024-01-30T04:50:54;22.60;;;12.20;;
62056;SDS011;48016;50.284;18.860;2024-01-30T04:55:48;24.00;;;11.70;;
62056;SDS011;48016;50.284;18.860;2024-01-30T04:58:15;21.40;;;11.70;;
62056;SDS011;48016;50.284;18.860;2024-01-30T05:00:42;25.10;;;12.80;;
62056;SDS011;48016;50.284;18.860;2024-01-30T05:03:09;24.20;;;12.80;;
62056;SDS011;48016;50.284;18.860;2024-01-30T05:05:35;22.90;;;11.90;;
62056;SDS011;48016;50.284;18.860;2024-01-30T05:08:02;21.10;;;12.10;;
62056;SDS011;48016;50.284;18.860;2024-01-30T05:10:29;23.30;;;12.80;;
62056;SDS011;48016;50.284;18.860;2024-01-30T05:12:56;22.60;;;11.70;;
62056;SDS011;48016;50.284;18.860;2024-01-30T05:15:22;21.20;;;11.60;;
62056;SDS011;48016;50.284;18.860;2024-01-30T05:17:49;22.40;;;12.90;;
62056;SDS011;48016;50.284;18.860;2024-01-30T05:20:16;21.80;;;13.80;;
62056;SDS011;48016;50.284;18.860;2024-01-30T05:22:43;25.50;;;15.30;;
62056;SDS011;48016;50.284;18.860;2024-01-30T05:25:14;30.80;;;17.00;;
62056;SDS011;48016;50.284;18.860;2024-01-30T05:27:41;24.90;;;15.60;;
62056;SDS011;48016;50.284;18.860;2024-01-30T05:30:07;27.40;;;16.60;;
62056;SDS011;48016;50.284;18.860;2024-01-30T05:35:02;30.50;;;17.20;;
62056;SDS011;48016;50.284;18.860;2024-01-30T05:37:30;26.20;;;16.70;;
62056;SDS011;48016;50.284;18.860;2024-01-30T05:39:56;27.00;;;18.40;;
62056;SDS011;48016;50.284;18.860;2024-01-30T05:42:23;28.10;;;17.90;;
62056;SDS011;48016;50.284;18.860;2024-01-30T05:44:51;30.20;;;18.00;;
62056;SDS011;48016;50.284;18.860;2024-01-30T05:47:17;29.80;;;17.60;;
62056;SDS011;48016;50.284;18.860;2024-01-30T05:49:44;30.50;;;18.40;;
62056;SDS011;48016;50.284;18.860;2024-01-30T05:52:11;36.00;;;20.40;;
62056;SDS011;48016;50.284;18.860;2024-01-30T05:54:37;37.60;;;19.70;;
62056;SDS011;48016;50.284;18.860;2024-01-30T05:57:04;28.40;;;18.00;;
62056;SDS011;48016;50.284;18.860;2024-01-30T05:59:31;30.20;;;16.90;;
62056;SDS011;48016;50.284;18.860;2024-01-30T06:01:58;28.20;;;15.30;;
62056;SDS011;48016;50.284;18.860;2024-01-30T06:04:25;31.50;;;17.60;;
62056;SDS011;48016;50.284;18.860;2024-01-30T06:06:51;25.00;;;15.50;;
62056;SDS011;48016;50.284;18.860;2024-01-30T06:09:18;32.10;;;19.00;;
62056;SDS011;48016;50.284;18.860;2024-01-30T06:11:45;28.80;;;16.30;;
62056;SDS011;48016;50.284;18.860;2024-01-30T06:14:12;25.40;;;16.30;;
62056;SDS011;48016;50.284;18.860;2024-01-30T06:16:38;31.10;;;17.00;;
62056;SDS011;48016;50.284;18.860;2024-01-30T06:19:05;33.60;;;17.80;;
62056;SDS011;48016;50.284;18.860;2024-01-30T06:21:32;37.40;;;18.30;;
62056;SDS011;48016;50.284;18.860;2024-01-30T06:24:02;32.70;;;18.60;;
62056;SDS011;48016;50.284;18.860;2024-01-30T06:26:30;31.80;;;18.30;;
62056;SDS011;48016;50.284;18.860;2024-01-30T06:28:56;33.40;;;18.90;;
62056;SDS011;48016;50.284;18.860;2024-01-30T06:31:23;31.00;;;18.30;;
62056;SDS011;48016;50.284;18.860;2024-01-30T06:33:50;33.90;;;18.50;;
62056;SDS011;48016;50.284;18.860;2024-01-30T06:36:17;35.80;;;20.00;;
62056;SDS011;48016;50.284;18.860;2024-01-30T06:38:43;34.90;;;19.80;;
62056;SDS011;48016;50.284;18.860;2024-01-30T06:41:10;35.70;;;20.40;;
62056;SDS011;48016;50.284;18.860;2024-01-30T06:43:37;34.80;;;19.80;;
62056;SDS011;48016;50.284;18.860;2024-01-30T06:46:03;33.60;;;18.90;;
62056;SDS011;48016;50.284;18.860;2024-01-30T06:48:30;34.00;;;19.30;;
62056;SDS011;48016;50.284;18.860;2024-01-30T06:50:57;34.10;;;18.70;;
62056;SDS011;48016;50.284;18.860;2024-01-30T06:53:23;37.20;;;20.50;;
62056;SDS011;48016;50.284;18.860;2024-01-30T06:55:52;33.50;;;19.50;;
62056;SDS011;48016;50.284;18.860;2024-01-30T06:58:18;32.00;;;17.00;;
62056;SDS011;48016;50.284;18.860;2024-01-30T07:00:45;28.80;;;17.10;;
62056;SDS011;48016;50.284;18.860;2024-01-30T07:03:12;36.60;;;18.90;;
62056;SDS011;48016;50.284;18.860;2024-01-30T07:05:38;35.60;;;19.00;;
62056;SDS011;48016;50.284;18.860;2024-01-30T07:08:05;34.60;;;18.90;;
62056;SDS011;48016;50.284;18.860;2024-01-30T07:10:32;37.30;;;19.80;;
62056;SDS011;48016;50.284;18.860;2024-01-30T07:13:00;33.90;;;18.40;;
62056;SDS011;48016;50.284;18.860;2024-01-30T07:15:27;32.00;;;17.40;;
62056;SDS011;48016;50.284;18.860;2024-01-30T07:17:54;30.20;;;16.90;;
62056;SDS011;48016;50.284;18.860;2024-01-30T07:20:20;33.90;;;17.30;;
62056;SDS011;48016;50.284;18.860;2024-01-30T07:22:47;30.10;;;16.90;;
62056;SDS011;48016;50.284;18.860;2024-01-30T07:25:14;34.70;;;18.80;;
62056;SDS011;48016;50.284;18.860;2024-01-30T07:27:41;30.60;;;18.90;;
62056;SDS011;48016;50.284;18.860;2024-01-30T07:30:08;36.00;;;18.20;;
62056;SDS011;48016;50.284;18.860;2024-01-30T07:32:35;37.90;;;19.20;;
62056;SDS011;48016;50.284;18.860;2024-01-30T07:35:02;32.70;;;18.00;;
62056;SDS011;48016;50.284;18.860;2024-01-30T07:37:28;33.70;;;18.80;;
62056;SDS011;48016;50.284;18.860;2024-01-30T07:39:55;34.10;;;17.10;;
62056;SDS011;48016;50.284;18.860;2024-01-30T07:42:22;31.70;;;17.50;;
62056;SDS011;48016;50.284;18.860;2024-01-30T07:44:49;28.40;;;15.70;;
62056;SDS011;48016;50.284;18.860;2024-01-30T07:47:16;30.70;;;17.00;;
62056;SDS011;48016;50.284;18.860;2024-01-30T07:49:42;35.50;;;18.10;;
62056;SDS011;48016;50.284;18.860;2024-01-30T07:52:09;28.20;;;15.00;;
62056;SDS011;48016;50.284;18.860;2024-01-30T07:54:36;26.30;;;14.60;;
62056;SDS011;48016;50.284;18.860;2024-01-30T07:57:05;26.00;;;14.60;;
62056;SDS011;48016;50.284;18.860;2024-01-30T07:59:31;22.20;;;13.20;;
62056;SDS011;48016;50.284;18.860;2024-01-30T08:01:58;28.90;;;15.40;;
62056;SDS011;48016;50.284;18.860;2024-01-30T08:04:25;27.10;;;14.40;;
62056;SDS011;48016;50.284;18.860;2024-01-30T08:06:51;26.50;;;13.70;;
62056;SDS011;48016;50.284;18.860;2024-01-30T08:09:18;23.80;;;13.90;;
62056;SDS011;48016;50.284;18.860;2024-01-30T08:11:45;27.90;;;13.30;;
62056;SDS011;48016;50.284;18.860;2024-01-30T08:14:11;23.10;;;12.10;;
62056;SDS011;48016;50.284;18.860;2024-01-30T08:16:40;22.20;;;12.20;;
62056;SDS011;48016;50.284;18.860;2024-01-30T08:19:06;20.90;;;12.40;;
62056;SDS011;48016;50.284;18.860;2024-01-30T08:21:33;23.00;;;12.80;;
62056;SDS011;48016;50.284;18.860;2024-01-30T08:24:03;26.20;;;12.10;;
62056;SDS011;48016;50.284;18.860;2024-01-30T08:26:31;28.60;;;13.70;;
62056;SDS011;48016;50.284;18.860;2024-01-30T08:28:59;30.40;;;13.90;;
62056;SDS011;48016;50.284;18.860;2024-01-30T08:31:26;24.90;;;12.70;;
62056;SDS011;48016;50.284;18.860;2024-01-30T08:33:53;26.80;;;13.60;;
62056;SDS011;48016;50.284;18.860;2024-01-30T08:36:19;23.40;;;13.30;;
62056;SDS011;48016;50.284;18.860;2024-01-30T08:38:46;25.80;;;12.90;;
62056;SDS011;48016;50.284;18.860;2024-01-30T08:41:13;24.20;;;12.30;;
62056;SDS011;48016;50.284;18.860;2024-01-30T08:43:40;22.80;;;12.60;;
62056;SDS011;48016;50.284;18.860;2024-01-30T08:46:07;24.60;;;12.20;;
62056;SDS011;48016;50.284;18.860;2024-01-30T08:48:35;23.00;;;11.80;;
62056;SDS011;48016;50.284;18.860;2024-01-30T08:51:02;28.80;;;14.30;;
62056;SDS011;48016;50.284;18.860;2024-01-30T08:53:29;31.20;;;15.30;;
62056;SDS011;48016;50.284;18.860;2024-01-30T08:55:55;25.20;;;13.00;;
62056;SDS011;48016;50.284;18.860;2024-01-30T08:58:25;29.80;;;15.20;;
62056;SDS011;48016;50.284;18.860;2024-01-30T09:00:52;27.80;;;13.80;;
62056;SDS011;48016;50.284;18.860;2024-01-30T09:03:19;22.50;;;12.70;;
62056;SDS011;48016;50.284;18.860;2024-01-30T09:05:46;23.10;;;11.50;;
62056;SDS011;48016;50.284;18.860;2024-01-30T09:08:12;19.40;;;10.70;;
62056;SDS011;48016;50.284;18.860;2024-01-30T09:10:39;21.60;;;11.00;;
62056;SDS011;48016;50.284;18.860;2024-01-30T09:13:07;19.50;;;11.00;;
62056;SDS011;48016;50.284;18.860;2024-01-30T09:15:34;20.90;;;10.90;;
62056;SDS011;48016;50.284;18.860;2024-01-30T09:18:01;19.10;;;11.00;;
62056;SDS011;48016;50.284;18.860;2024-01-30T09:20:28;22.20;;;11.70;;
62056;SDS011;48016;50.284;18.860;2024-01-30T09:22:55;23.60;;;11.50;;
62056;SDS011;48016;50.284;18.860;2024-01-30T09:25:21;22.40;;;11.20;;
62056;SDS011;48016;50.284;18.860;2024-01-30T09:27:48;20.80;;;11.00;;
62056;SDS011;48016;50.284;18.860;2024-01-30T09:30:15;21.10;;;11.70;;
62056;SDS011;48016;50.284;18.860;2024-01-30T09:32:42;18.60;;;9.90;;
62056;SDS011;48016;50.284;18.860;2024-01-30T09:35:09;19.20;;;10.00;;
62056;SDS011;48016;50.284;18.860;2024-01-30T09:37:36;23.20;;;10.90;;
62056;SDS011;48016;50.284;18.860;2024-01-30T09:40:03;21.10;;;11.30;;
62056;SDS011;48016;50.284;18.860;2024-01-30T09:42:35;20.50;;;11.90;;
62056;SDS011;48016;50.284;18.860;2024-01-30T09:45:03;21.40;;;11.70;;
62056;SDS011;48016;50.284;18.860;2024-01-30T09:47:40;20.70;;;12.60;;
62056;SDS011;48016;50.284;18.860;2024-01-30T09:50:09;22.00;;;11.20;;
62056;SDS011;48016;50.284;18.860;2024-01-30T09:52:37;19.50;;;10.80;;
62056;SDS011;48016;50.284;18.860;2024-01-30T09:55:04;19.80;;;10.40;;
62056;SDS011;48016;50.284;18.860;2024-01-30T09:57:36;25.30;;;11.20;;
62056;SDS011;48016;50.284;18.860;2024-01-30T10:00:03;18.80;;;11.20;;
62056;SDS011;48016;50.284;18.860;2024-01-30T10:02:35;20.00;;;12.30;;
62056;SDS011;48016;50.284;18.860;2024-01-30T10:07:29;18.80;;;10.10;;
62056;SDS011;48016;50.284;18.860;2024-01-30T10:12:26;18.60;;;10.10;;
62056;SDS011;48016;50.284;18.860;2024-01-30T10:14:55;14.50;;;9.00;;
62056;SDS011;48016;50.284;18.860;2024-01-30T10:17:24;16.30;;;9.30;;
62056;SDS011;48016;50.284;18.860;2024-01-30T10:19:53;19.30;;;10.40;;
62056;SDS011;48016;50.284;18.860;2024-01-30T10:22:20;16.90;;;9.60;;
62056;SDS011;48016;50.284;18.860;2024-01-30T10:24:46;18.20;;;10.30;;
62056;SDS011;48016;50.284;18.860;2024-01-30T10:27:14;19.70;;;9.40;;
62056;SDS011;48016;50.284;18.860;2024-01-30T10:29:41;18.50;;;9.40;;
62056;SDS011;48016;50.284;18.860;2024-01-30T10:32:08;21.10;;;11.30;;
62056;SDS011;48016;50.284;18.860;2024-01-30T10:34:35;19.60;;;10.20;;
62056;SDS011;48016;50.284;18.860;2024-01-30T10:37:09;15.90;;;8.80;;
62056;SDS011;48016;50.284;18.860;2024-01-30T10:39:42;16.60;;;9.50;;
62056;SDS011;48016;50.284;18.860;2024-01-30T10:42:14;19.80;;;9.00;;
62056;SDS011;48016;50.284;18.860;2024-01-30T10:47:30;23.60;;;11.30;;
62056;SDS011;48016;50.284;18.860;2024-01-30T10:50:00;20.50;;;10.40;;
62056;SDS011;48016;50.284;18.860;2024-01-30T10:52:29;18.70;;;10.50;;
62056;SDS011;48016;50.284;18.860;2024-01-30T10:54:58;20.30;;;9.70;;
62056;SDS011;48016;50.284;18.860;2024-01-30T10:57:26;17.30;;;10.40;;
62056;SDS011;48016;50.284;18.860;2024-01-30T10:59:55;17.50;;;9.50;;
62056;SDS011;48016;50.284;18.860;2024-01-30T11:02:23;20.80;;;10.30;;
62056;SDS011;48016;50.284;18.860;2024-01-30T11:04:58;17.60;;;9.70;;
62056;SDS011;48016;50.284;18.860;2024-01-30T11:07:26;17.00;;;10.30;;
62056;SDS011;48016;50.284;18.860;2024-01-30T11:12:24;14.90;;;9.00;;
62056;SDS011;48016;50.284;18.860;2024-01-30T11:15:06;22.90;;;12.20;;
62056;SDS011;48016;50.284;18.860;2024-01-30T11:20:12;18.20;;;10.40;;
62056;SDS011;48016;50.284;18.860;2024-01-30T11:22:44;19.40;;;10.50;;
62056;SDS011;48016;50.284;18.860;2024-01-30T11:25:15;23.40;;;12.80;;
62056;SDS011;48016;50.284;18.860;2024-01-30T11:27:43;27.60;;;14.60;;
62056;SDS011;48016;50.284;18.860;2024-01-30T11:30:20;19.90;;;11.80;;
62056;SDS011;48016;50.284;18.860;2024-01-30T11:33:02;17.50;;;9.70;;
62056;SDS011;48016;50.284;18.860;2024-01-30T11:35:35;20.50;;;9.60;;
62056;SDS011;48016;50.284;18.860;2024-01-30T11:38:03;21.60;;;10.50;;
62056;SDS011;48016;50.284;18.860;2024-01-30T11:40:32;22.20;;;11.50;;
62056;SDS011;48016;50.284;18.860;2024-01-30T11:43:00;22.70;;;12.20;;
62056;SDS011;48016;50.284;18.860;2024-01-30T11:45:29;26.40;;;14.20;;
62056;SDS011;48016;50.284;18.860;2024-01-30T11:47:56;21.80;;;11.40;;
62056;SDS011;48016;50.284;18.860;2024-01-30T11:50:24;20.40;;;11.50;;
62056;SDS011;48016;50.284;18.860;2024-01-30T11:52:51;20.80;;;11.90;;
62056;SDS011;48016;50.284;18.860;2024-01-30T11:55:18;22.90;;;12.60;;
62056;SDS011;48016;50.284;18.860;2024-01-30T11:57:46;20.80;;;11.50;;
62056;SDS011;48016;50.284;18.860;2024-01-30T12:00:16;25.60;;;11.40;;
62056;SDS011;48016;50.284;18.860;2024-01-30T12:02:48;27.70;;;13.10;;
62056;SDS011;48016;50.284;18.860;2024-01-30T12:05:18;27.00;;;14.10;;
62056;SDS011;48016;50.284;18.860;2024-01-30T12:07:46;23.00;;;12.60;;
62056;SDS011;48016;50.284;18.860;2024-01-30T12:10:13;24.50;;;13.00;;
62056;SDS011;48016;50.284;18.860;2024-01-30T12:12:47;22.10;;;12.60;;
62056;SDS011;48016;50.284;18.860;2024-01-30T12:15:16;23.60;;;12.50;;
62056;SDS011;48016;50.284;18.860;2024-01-30T12:17:43;22.20;;;11.60;;
62056;SDS011;48016;50.284;18.860;2024-01-30T12:20:14;24.90;;;13.60;;
62056;SDS011;48016;50.284;18.860;2024-01-30T12:22:44;23.00;;;12.10;;
62056;SDS011;48016;50.284;18.860;2024-01-30T12:25:14;19.70;;;10.90;;
62056;SDS011;48016;50.284;18.860;2024-01-30T12:27:43;23.40;;;11.60;;
62056;SDS011;48016;50.284;18.860;2024-01-30T12:30:11;20.00;;;11.30;;
62056;SDS011;48016;50.284;18.860;2024-01-30T12:32:45;22.80;;;11.80;;
62056;SDS011;48016;50.284;18.860;2024-01-30T12:35:14;20.00;;;10.70;;
62056;SDS011;48016;50.284;18.860;2024-01-30T12:37:43;23.10;;;12.30;;
62056;SDS011;48016;50.284;18.860;2024-01-30T12:40:11;22.00;;;12.10;;
62056;SDS011;48016;50.284;18.860;2024-01-30T12:42:41;22.10;;;12.70;;
62056;SDS011;48016;50.284;18.860;2024-01-30T12:45:09;21.00;;;11.40;;
62056;SDS011;48016;50.284;18.860;2024-01-30T12:47:36;17.30;;;11.00;;
62056;SDS011;48016;50.284;18.860;2024-01-30T12:50:02;18.40;;;10.20;;
62056;SDS011;48016;50.284;18.860;2024-01-30T12:52:30;17.10;;;10.50;;
62056;SDS011;48016;50.284;18.860;2024-01-30T12:54:57;19.50;;;11.60;;
62056;SDS011;48016;50.284;18.860;2024-01-30T12:57:24;21.60;;;11.40;;
62056;SDS011;48016;50.284;18.860;2024-01-30T12:59:51;17.70;;;10.30;;
62056;SDS011;48016;50.284;18.860;2024-01-30T13:02:17;26.50;;;13.40;;
62056;SDS011;48016;50.284;18.860;2024-01-30T13:04:45;21.50;;;12.60;;
62056;SDS011;48016;50.284;18.860;2024-01-30T13:07:11;23.90;;;13.00;;
62056;SDS011;48016;50.284;18.860;2024-01-30T13:09:38;25.30;;;13.30;;
62056;SDS011;48016;50.284;18.860;2024-01-30T13:12:05;27.30;;;13.30;;
62056;SDS011;48016;50.284;18.860;2024-01-30T13:14:31;21.40;;;11.50;;
62056;SDS011;48016;50.284;18.860;2024-01-30T13:16:58;21.70;;;11.50;;
62056;SDS011;48016;50.284;18.860;2024-01-30T13:19:25;16.50;;;9.50;;
62056;SDS011;48016;50.284;18.860;2024-01-30T13:21:52;19.50;;;11.80;;
62056;SDS011;48016;50.284;18.860;2024-01-30T13:24:19;17.30;;;10.20;;
62056;SDS011;48016;50.284;18.860;2024-01-30T13:26:48;17.10;;;9.30;;
62056;SDS011;48016;50.284;18.860;2024-01-30T13:29:15;16.70;;;9.00;;
62056;SDS011;48016;50.284;18.860;2024-01-30T13:31:42;16.70;;;9.60;;
62056;SDS011;48016;50.284;18.860;2024-01-30T13:34:10;20.00;;;10.40;;
62056;SDS011;48016;50.284;18.860;2024-01-30T13:36:37;19.50;;;10.00;;
62056;SDS011;48016;50.284;18.860;2024-01-30T13:39:04;23.30;;;11.40;;
62056;SDS011;48016;50.284;18.860;2024-01-30T13:41:35;20.60;;;10.60;;
62056;SDS011;48016;50.284;18.860;2024-01-30T13:44:01;16.10;;;9.60;;
62056;SDS011;48016;50.284;18.860;2024-01-30T13:46:30;21.40;;;11.60;;
62056;SDS011;48016;50.284;18.860;2024-01-30T13:48:57;18.00;;;10.70;;
62056;SDS011;48016;50.284;18.860;2024-01-30T13:51:24;22.70;;;12.40;;
62056;SDS011;48016;50.284;18.860;2024-01-30T13:53:51;24.00;;;12.90;;
62056;SDS011;48016;50.284;18.860;2024-01-30T13:56:19;21.60;;;12.60;;
62056;SDS011;48016;50.284;18.860;2024-01-30T13:58:50;20.30;;;10.90;;
62056;SDS011;48016;50.284;18.860;2024-01-30T14:01:16;20.50;;;11.80;;
62056;SDS011;48016;50.284;18.860;2024-01-30T14:03:43;22.70;;;12.50;;
62056;SDS011;48016;50.284;18.860;2024-01-30T14:06:11;19.80;;;11.70;;
62056;SDS011;48016;50.284;18.860;2024-01-30T14:08:38;20.50;;;10.30;;
62056;SDS011;48016;50.284;18.860;2024-01-30T14:11:05;17.10;;;10.20;;
62056;SDS011;48016;50.284;18.860;2024-01-30T14:13:31;20.00;;;10.20;;
62056;SDS011;48016;50.284;18.860;2024-01-30T14:15:59;22.30;;;10.90;;
62056;SDS011;48016;50.284;18.860;2024-01-30T14:18:25;25.40;;;11.00;;
62056;SDS011;48016;50.284;18.860;2024-01-30T14:20:52;23.20;;;12.20;;
62056;SDS011;48016;50.284;18.860;2024-01-30T14:23:20;26.20;;;12.60;;
62056;SDS011;48016;50.284;18.860;2024-01-30T14:25:47;28.30;;;12.40;;
62056;SDS011;48016;50.284;18.860;2024-01-30T14:28:15;25.10;;;11.60;;
62056;SDS011;48016;50.284;18.860;2024-01-30T14:30:42;30.30;;;13.50;;
62056;SDS011;48016;50.284;18.860;2024-01-30T14:33:09;30.30;;;14.20;;